Time;durP1;ratioP1;P1;durP2;ratioP2;P2;SDS_P1;SDS_P2;PMS_P1;PMS_P2;Temp;Humidity;BMP_temperature;BMP_pressure;BME280_temperature;BME280_humidity;BME280_pressure;Samples;Min_cycle;Max_cycle;Signal;HPM_P1;HPM_P2
2023/01/25 00:01:33;;;;;;;1.00;0.52;;;1.80;99.90;;;;;;20899566;28;20041;-58
2023/01/25 00:11:36;;;;;;;0.73;0.50;;;2.10;99.90;;;;;;20911256;28;20029;-58
2023/01/25 00:21:38;;;;;;;1.13;0.60;;;2.20;99.90;;;;;;20907849;28;20087;-58
2023/01/25 00:31:55;;;;;;;1.20;0.30;;;2.20;99.90;;;;;;20914124;28;20379;-58
2023/01/25 00:41:57;;;;;;;0.80;0.40;;;2.00;99.90;;;;;;20910212;28;20051;-58
2023/01/25 00:51:59;;;;;;;1.25;0.73;;;1.90;99.90;;;;;;20912534;28;20032;-58
2023/01/25 01:02:01;;;;;;;0.90;0.63;;;1.90;99.90;;;;;;20893903;28;20111;-58
2023/01/25 01:12:04;;;;;;;1.92;1.10;;;1.90;99.90;;;;;;20911206;28;20029;-57
2023/01/25 01:22:06;;;;;;;2.03;1.08;;;1.90;99.90;;;;;;20908475;28;20029;-57
2023/01/25 01:32:08;;;;;;;1.55;0.95;;;2.00;99.90;;;;;;20891486;28;20033;-58
2023/01/25 01:42:10;;;;;;;1.30;0.80;;;2.00;99.90;;;;;;20890833;28;20036;-56
2023/01/25 01:52:18;;;;;;;2.60;1.10;;;2.00;99.90;;;;;;20908919;28;20359;-58
2023/01/25 02:02:21;;;;;;;2.85;1.08;;;2.00;99.90;;;;;;20889030;28;20111;-58
2023/01/25 02:12:24;;;;;;;1.85;1.10;;;2.00;99.90;;;;;;20906377;28;20017;-58
2023/01/25 02:22:49;;;;;;;2.22;1.25;;;2.10;99.90;;;;;;20869779;28;20425;-58
2023/01/25 02:32:51;;;;;;;2.50;1.75;;;2.20;99.90;;;;;;20897599;28;20087;-58
2023/01/25 02:42:52;;;;;;;2.45;1.80;;;2.10;99.90;;;;;;20903960;28;20024;-58
2023/01/25 02:52:54;;;;;;;3.45;1.40;;;2.10;99.90;;;;;;20903095;28;20033;-58
2023/01/25 03:02:56;;;;;;;1.92;1.00;;;1.90;99.90;;;;;;20884547;28;20037;-58
2023/01/25 03:12:59;;;;;;;0.98;0.70;;;1.80;99.90;;;;;;20868138;28;20432;-58
2023/01/25 03:23:00;;;;;;;1.98;0.40;;;1.90;99.90;;;;;;20883095;28;20033;-56
2023/01/25 03:33:03;;;;;;;0.93;0.50;;;1.60;99.90;;;;;;20882995;28;20029;-58
2023/01/25 03:43:06;;;;;;;1.65;0.60;;;1.30;99.90;;;;;;20889001;28;20025;-58
2023/01/25 03:53:20;;;;;;;2.50;0.70;;;1.00;99.90;;;;;;20899489;28;20037;-58
2023/01/25 04:03:24;;;;;;;1.17;0.70;;;0.70;99.90;;;;;;20916167;28;20502;-58
2023/01/25 04:13:28;;;;;;;0.75;0.40;;;0.50;99.90;;;;;;20881646;28;20485;-58
2023/01/25 04:23:30;;;;;;;1.08;0.50;;;0.50;99.90;;;;;;20914461;28;20467;-58
2023/01/25 04:33:33;;;;;;;0.90;0.50;;;1.00;99.90;;;;;;20914050;28;20029;-58
2023/01/25 04:43:35;;;;;;;1.25;0.60;;;1.20;99.90;;;;;;20908800;28;20470;-58
2023/01/25 04:53:41;;;;;;;1.00;0.60;;;1.30;99.90;;;;;;20894909;28;20036;-58
2023/01/25 05:03:44;;;;;;;3.78;2.22;;;1.50;99.90;;;;;;20894581;28;20045;-58
2023/01/25 05:13:57;;;;;;;3.70;2.47;;;1.10;99.90;;;;;;20893205;28;20422;-58
2023/01/25 05:24:05;;;;;;;2.72;1.83;;;0.50;99.90;;;;;;20888733;28;20111;-58
2023/01/25 05:34:08;;;;;;;1.95;0.63;;;0.20;99.90;;;;;;20891746;28;20052;-58
2023/01/25 05:44:10;;;;;;;3.55;2.20;;;1.10;99.90;;;;;;20890758;28;20028;-58
2023/01/25 05:54:16;;;;;;;5.72;2.92;;;1.60;99.90;;;;;;20889795;28;20033;-58
2023/01/25 06:04:24;;;;;;;4.38;2.67;;;0.80;99.90;;;;;;20887500;28;20049;-57
2023/01/25 06:14:26;;;;;;;4.25;1.70;;;0.30;99.90;;;;;;20905247;28;20033;-58
2023/01/25 06:24:28;;;;;;;1.30;0.90;;;0.10;99.90;;;;;;20888335;28;20397;-59
2023/01/25 06:34:30;;;;;;;1.58;0.93;;;0.80;99.90;;;;;;20905432;28;20432;-57
2023/01/25 06:44:33;;;;;;;1.20;0.73;;;1.30;99.90;;;;;;20901453;28;20051;-58
2023/01/25 06:54:35;;;;;;;1.50;0.90;;;1.50;99.90;;;;;;20902373;28;20119;-58
2023/01/25 07:04:36;;;;;;;4.03;2.10;;;1.50;99.90;;;;;;20904309;28;20048;-58
2023/01/25 07:14:38;;;;;;;3.70;2.30;;;1.20;99.90;;;;;;20902285;28;20029;-59
2023/01/25 07:24:40;;;;;;;4.22;2.05;;;0.60;99.90;;;;;;20898603;28;20017;-57
2023/01/25 07:34:42;;;;;;;4.28;2.50;;;0.40;99.90;;;;;;20899312;28;20547;-58
2023/01/25 07:44:43;;;;;;;3.50;2.05;;;0.50;99.90;;;;;;20900187;28;20032;-59
2023/01/25 07:54:48;;;;;;;3.35;1.88;;;0.70;99.90;;;;;;20901631;28;20095;-58
2023/01/25 08:04:50;;;;;;;3.45;1.88;;;1.10;99.90;;;;;;20901181;28;20150;-57
2023/01/25 08:14:52;;;;;;;94.00;7.78;;;1.80;99.90;;;;;;20901423;28;20036;-58
2023/01/25 08:24:54;;;;;;;6.75;4.10;;;2.90;99.90;;;;;;20900359;28;20544;-59
2023/01/25 08:34:55;;;;;;;5.55;3.70;;;2.90;99.90;;;;;;20915297;28;20029;-55
2023/01/25 08:44:57;;;;;;;6.05;4.22;;;4.30;99.90;;;;;;20912435;28;20074;-56
2023/01/25 08:54:59;;;;;;;8.05;4.97;;;5.10;99.90;;;;;;20913908;28;20473;-55
2023/01/25 09:05:07;;;;;;;94.97;7.57;;;4.90;99.90;;;;;;20912671;28;20045;-58
2023/01/25 09:15:09;;;;;;;6.65;4.80;;;5.10;99.90;;;;;;20912577;28;20371;-58
2023/01/25 09:25:10;;;;;;;6.50;4.47;;;4.40;99.90;;;;;;20911000;28;20029;-58
2023/01/25 09:35:12;;;;;;;7.88;4.57;;;4.90;99.90;;;;;;20910923;28;20406;-58
2023/01/25 09:45:31;;;;;;;6.60;4.80;;;4.90;99.90;;;;;;20908697;28;20020;-53
2023/01/25 09:55:33;;;;;;;7.55;3.90;;;5.20;99.90;;;;;;20907816;28;20029;-57
2023/01/25 10:05:43;;;;;;;6.05;3.60;;;5.90;99.90;;;;;;20888463;28;20372;-57
2023/01/25 10:16:20;;;;;;;4.47;3.47;;;6.20;99.90;;;;;;20906746;28;20032;-52
2023/01/25 10:26:32;;;;;;;6.22;4.22;;;6.50;99.90;;;;;;20882083;28;20445;-58
2023/01/25 10:36:33;;;;;;;6.32;4.47;;;6.80;99.90;;;;;;20876509;28;20079;-59
2023/01/25 10:46:38;;;;;;;8.60;5.78;;;6.60;99.90;;;;;;20904803;28;20059;-58
2023/01/25 10:56:42;;;;;;;6.18;4.20;;;4.90;99.90;;;;;;20904095;28;20067;-55
2023/01/25 11:06:50;;;;;;;5.35;3.83;;;5.50;99.90;;;;;;20902002;28;20407;-53
2023/01/25 11:16:53;;;;;;;4.85;3.75;;;6.50;99.90;;;;;;20901472;28;20037;-53
2023/01/25 11:27:27;;;;;;;6.95;4.40;;;6.50;99.90;;;;;;20903581;28;20556;-58
2023/01/25 11:38:03;;;;;;;5.15;3.72;;;5.90;99.90;;;;;;20727350;28;20104;-54
2023/01/25 11:48:25;;;;;;;5.07;3.67;;;6.40;99.90;;;;;;20724860;28;20045;-58
2023/01/25 11:59:03;;;;;;;4.88;3.45;;;6.70;99.90;;;;;;20726078;28;20080;-57
2023/01/25 12:09:43;;;;;;;7.63;4.70;;;6.80;99.90;;;;;;20819921;28;20140;-57
2023/01/25 12:19:56;;;;;;;6.13;4.50;;;7.60;99.90;;;;;;20898229;28;20406;-58
2023/01/25 12:30:04;;;;;;;7.70;5.82;;;7.00;99.90;;;;;;20912099;28;20041;-58
2023/01/25 12:40:14;;;;;;;7.38;5.80;;;6.60;99.90;;;;;;20910399;28;20021;-58
2023/01/25 12:50:34;;;;;;;21.53;5.80;;;7.40;99.90;;;;;;20913790;28;20028;-58
2023/01/25 13:00:44;;;;;;;6.77;5.40;;;7.10;99.90;;;;;;20913569;28;20033;-58
2023/01/25 13:10:54;;;;;;;8.77;6.53;;;6.20;99.90;;;;;;20912608;28;20098;-58
2023/01/25 13:20:58;;;;;;;7.23;5.60;;;6.90;99.90;;;;;;20910087;28;20406;-56
2023/01/25 13:31:00;;;;;;;7.75;5.78;;;6.00;99.90;;;;;;20912851;28;20075;-58
2023/01/25 13:41:10;;;;;;;8.55;6.60;;;5.80;99.90;;;;;;20909409;28;20052;-58
2023/01/25 13:51:15;;;;;;;8.53;6.57;;;6.00;99.90;;;;;;20909079;28;20378;-58
2023/01/25 14:01:19;;;;;;;13.20;8.07;;;5.30;99.90;;;;;;20908957;28;20870;-58
2023/01/25 14:11:23;;;;;;;9.65;6.97;;;4.70;99.90;;;;;;20905447;28;20309;-57
2023/01/25 14:21:24;;;;;;;9.90;7.13;;;4.00;99.90;;;;;;20902941;28;20025;-58
2023/01/25 14:31:35;;;;;;;46.03;9.95;;;3.80;99.90;;;;;;20903420;28;20033;-58
2023/01/25 14:41:41;;;;;;;10.83;7.37;;;3.50;99.90;;;;;;20887636;28;20034;-58
2023/01/25 14:52:04;;;;;;;12.63;8.75;;;3.10;99.90;;;;;;20904574;28;20096;-59
2023/01/25 15:02:34;;;;;;;12.38;7.95;;;2.80;99.90;;;;;;20904301;28;20041;-58
2023/01/25 15:12:36;;;;;;;13.35;9.00;;;2.60;99.90;;;;;;20901254;28;20474;-58
2023/01/25 15:22:38;;;;;;;13.13;8.23;;;2.30;99.90;;;;;;20904548;28;20025;-58
2023/01/25 15:32:40;;;;;;;11.85;7.82;;;2.10;99.90;;;;;;20886707;28;20041;-58
2023/01/25 15:42:41;;;;;;;16.45;9.98;;;1.90;99.90;;;;;;20900900;28;20036;-58
2023/01/25 15:52:43;;;;;;;19.48;10.82;;;1.60;99.90;;;;;;20903680;28;20083;-57
2023/01/25 16:02:45;;;;;;;17.80;10.77;;;1.00;99.90;;;;;;20900103;28;20122;-58
2023/01/25 16:12:48;;;;;;;19.27;11.70;;;0.80;99.90;;;;;;20897926;28;20099;-57
2023/01/25 16:22:50;;;;;;;18.40;11.23;;;0.80;99.90;;;;;;20902505;28;20064;-56
2023/01/25 16:32:52;;;;;;;15.73;10.25;;;0.80;99.90;;;;;;20900968;28;20032;-58
2023/01/25 16:42:55;;;;;;;17.48;11.23;;;0.70;99.90;;;;;;20903997;28;20064;-57
2023/01/25 16:52:57;;;;;;;26.52;12.40;;;0.70;99.90;;;;;;20908853;28;20437;-57
2023/01/25 17:02:59;;;;;;;284.83;21.73;;;0.70;99.90;;;;;;20912848;28;20123;-56
2023/01/25 17:13:00;;;;;;;59.88;15.10;;;0.70;99.90;;;;;;20911947;28;20056;-57
2023/01/25 17:23:02;;;;;;;210.32;19.30;;;0.60;99.90;;;;;;20913243;28;20036;-58
2023/01/25 17:33:04;;;;;;;104.93;16.65;;;0.60;99.90;;;;;;20913599;28;20029;-57
2023/01/25 17:43:05;;;;;;;27.23;14.25;;;0.50;99.90;;;;;;20912534;28;20094;-58
2023/01/25 17:53:07;;;;;;;49.83;16.70;;;0.40;99.90;;;;;;20908964;28;20032;-57
2023/01/25 18:03:09;;;;;;;26.98;14.50;;;0.40;99.90;;;;;;20907308;28;20095;-58
2023/01/25 18:13:10;;;;;;;24.52;13.88;;;0.30;99.90;;;;;;20904975;28;20029;-58
2023/01/25 18:23:12;;;;;;;17.98;10.27;;;0.30;99.90;;;;;;20905947;28;20029;-58
2023/01/25 18:33:14;;;;;;;15.48;9.30;;;0.30;99.90;;;;;;20908406;28;20457;-57
2023/01/25 18:43:16;;;;;;;16.95;9.77;;;0.20;99.90;;;;;;20907005;28;20103;-58
2023/01/25 18:53:18;;;;;;;16.63;9.80;;;0.10;99.90;;;;;;20904877;28;20056;-57
2023/01/25 19:03:20;;;;;;;18.52;10.70;;;0.10;99.90;;;;;;20893155;28;20049;-57
2023/01/25 19:13:22;;;;;;;27.23;15.15;;;0.10;99.90;;;;;;20899765;28;20481;-58
2023/01/25 19:23:24;;;;;;;23.23;13.30;;;0.20;99.90;;;;;;20901677;28;20041;-57
2023/01/25 19:33:26;;;;;;;23.83;12.90;;;0.20;99.90;;;;;;20900039;28;20029;-58
2023/01/25 19:43:28;;;;;;;24.35;13.60;;;0.10;99.90;;;;;;20901518;28;20429;-57
2023/01/25 19:53:30;;;;;;;25.55;14.50;;;0.20;99.90;;;;;;20901293;28;20159;-57
2023/01/25 20:03:32;;;;;;;21.80;13.05;;;0.10;99.90;;;;;;20901429;28;20382;-57
2023/01/25 20:13:34;;;;;;;20.20;11.98;;;0.10;99.90;;;;;;20900709;28;20037;-57
2023/01/25 20:23:38;;;;;;;21.58;12.52;;;0.10;99.90;;;;;;20887056;28;20029;-57
2023/01/25 20:33:40;;;;;;;18.52;11.65;;;0.10;99.90;;;;;;20915467;28;20032;-58
2023/01/25 20:43:49;;;;;;;20.98;11.40;;;0.00;99.90;;;;;;20914902;28;20033;-57
2023/01/25 20:53:53;;;;;;;22.83;12.68;;;-0.20;99.90;;;;;;20914106;28;20451;-57
2023/01/25 21:03:56;;;;;;;14.52;8.90;;;-0.30;99.90;;;;;;20892463;28;20091;-57
2023/01/25 21:13:58;;;;;;;16.83;9.57;;;-0.70;99.90;;;;;;20912720;28;20044;-57
2023/01/25 21:24:01;;;;;;;14.02;8.57;;;-0.90;99.90;;;;;;20907675;28;20540;-56
2023/01/25 21:34:05;;;;;;;15.15;8.30;;;-1.20;99.90;;;;;;20902761;28;20021;-55
2023/01/25 21:54:34;;;;;;;17.65;9.45;;;-2.20;99.90;;;;;;20900017;28;20646;-55
2023/01/25 22:04:36;;;;;;;16.77;9.15;;;-2.40;99.90;;;;;;20908514;28;20041;-57
2023/01/25 22:14:38;;;;;;;18.77;9.45;;;-2.70;99.90;;;;;;20884775;28;20059;-55
2023/01/25 22:24:40;;;;;;;17.48;8.82;;;-2.90;99.90;;;;;;20906148;28;20032;-55
2023/01/25 22:34:42;;;;;;;18.73;9.15;;;-2.90;99.90;;;;;;20888295;28;20083;-56
2023/01/25 22:44:44;;;;;;;18.58;9.98;;;-2.70;99.90;;;;;;20886109;28;20063;-56
2023/01/25 22:54:49;;;;;;;19.52;10.18;;;-2.90;99.90;;;;;;20905455;28;20036;-56
2023/01/25 23:04:51;;;;;;;18.88;9.05;;;-3.00;99.90;;;;;;20903777;28;20049;-56
2023/01/25 23:14:53;;;;;;;20.80;10.02;;;-3.10;99.90;;;;;;20904014;28;20036;-57
2023/01/25 23:24:54;;;;;;;19.08;10.02;;;-3.20;99.90;;;;;;20900133;28;20024;-57
2023/01/25 23:34:56;;;;;;;17.60;8.95;;;-3.30;99.90;;;;;;20900833;28;20029;-57
2023/01/25 23:44:58;;;;;;;18.98;9.00;;;-3.50;99.90;;;;;;20899188;28;20025;-55
2023/01/25 23:55:00;;;;;;;16.58;8.80;;;-3.70;99.90;;;;;;20898107;28;20033;-56
